Ackermanville, Pennsylvania
Current Conditions -  °F | °C
As of 5:51 AM on Thursday 23 Oct 2014 (Local Time) from KABE Reporting Station
Overcast Overcast  
Wind Chill: 51°   Ceiling: 4000
Heat Index: 51°   Visibility: 10mi
Dew Point: 43°   Wind: 14mph
Humidity: 74%   Direction: 350°N
Pressure: 29.8"   Gusts: 22mph
Location:  40.84°N, 75.22°W
Report Text: KABE 230951Z AUTO 35012G19KT 10SM BKN040 BKN050 OVC080 11/06 A2980 RMK AO2 SLP092 T01060061 TSNO
Loading
Personal Weather Stations






























Interactive Weather Map
Tropical Storm Tracking
New forecast layout! Learn more

10-Day Weather Forecast

Advertisements
Track Severe Weather on mobile